createdAt,value
2016-12-25T00:00:21.015Z,966.16
2016-12-25T00:00:47.001Z,966.09
2016-12-25T00:01:12.989Z,966.08
2016-12-25T00:01:38.972Z,966.07
2016-12-25T00:02:04.954Z,966.07
2016-12-25T00:02:30.953Z,966.03
2016-12-25T00:02:56.941Z,966.03
2016-12-25T00:03:22.947Z,965.98
2016-12-25T00:03:48.920Z,965.97
2016-12-25T00:04:14.905Z,965.99
2016-12-25T00:04:40.895Z,966
2016-12-25T00:05:06.879Z,965.99
2016-12-25T00:05:32.863Z,965.96
2016-12-25T00:05:58.845Z,966.01
2016-12-25T00:06:24.861Z,966.02
2016-12-25T00:06:50.857Z,966
2016-12-25T00:07:16.856Z,965.89
2016-12-25T00:07:42.845Z,965.89
2016-12-25T00:08:08.829Z,965.96
2016-12-25T00:08:34.814Z,965.94
2016-12-25T00:09:00.799Z,965.95
2016-12-25T00:09:26.781Z,965.91
2016-12-25T00:09:52.765Z,965.98
2016-12-25T00:10:18.749Z,965.95
2016-12-25T00:10:44.732Z,965.93
2016-12-25T00:11:10.720Z,965.97
2016-12-25T00:11:36.706Z,965.98
2016-12-25T00:12:02.692Z,965.97
2016-12-25T00:12:28.775Z,965.97
2016-12-25T00:12:54.760Z,965.95
2016-12-25T00:13:20.747Z,965.95
2016-12-25T00:13:46.726Z,965.97
2016-12-25T00:14:12.711Z,965.97
2016-12-25T00:14:38.694Z,966
2016-12-25T00:15:04.680Z,966.01
2016-12-25T00:15:30.672Z,966.02
2016-12-25T00:15:56.669Z,965.96
2016-12-25T00:16:22.659Z,965.98
2016-12-25T00:16:48.642Z,966.04
2016-12-25T00:17:14.627Z,966.04
2016-12-25T00:17:40.611Z,966.04
2016-12-25T00:18:06.595Z,966.06
2016-12-25T00:18:32.590Z,966.02
2016-12-25T00:18:58.571Z,966.06
2016-12-25T00:19:24.557Z,966.06
2016-12-25T00:19:50.540Z,966.03
2016-12-25T00:20:16.527Z,966.04
2016-12-25T00:20:42.519Z,966.08
2016-12-25T00:21:08.501Z,966
2016-12-25T00:21:34.485Z,966.04
2016-12-25T00:22:00.476Z,966.04
2016-12-25T00:22:26.477Z,966
2016-12-25T00:22:52.468Z,966.01
2016-12-25T00:23:18.468Z,965.97
2016-12-25T00:23:44.470Z,966
2016-12-25T00:24:10.489Z,965.99
2016-12-25T00:24:36.454Z,965.98
2016-12-25T00:25:02.441Z,965.99
2016-12-25T00:25:28.425Z,965.98
2016-12-25T00:25:54.411Z,966.02
2016-12-25T00:26:20.396Z,965.99
2016-12-25T00:26:46.382Z,965.96
2016-12-25T00:27:12.472Z,965.98
2016-12-25T00:27:38.465Z,965.94
2016-12-25T00:28:04.445Z,965.98
2016-12-25T00:28:30.453Z,965.97
2016-12-25T00:28:56.446Z,966.02
2016-12-25T00:29:22.458Z,965.98
2016-12-25T00:29:48.455Z,966.03
2016-12-25T00:30:14.434Z,966.03
2016-12-25T00:30:40.424Z,966.09
2016-12-25T00:31:06.425Z,966.04
2016-12-25T00:31:32.397Z,966.07
2016-12-25T00:31:58.383Z,966.1
2016-12-25T00:32:24.369Z,966.09
2016-12-25T00:32:50.351Z,966.11
2016-12-25T00:33:16.335Z,966.08
2016-12-25T00:33:42.321Z,966.08
2016-12-25T00:34:08.306Z,966.09
2016-12-25T00:34:34.296Z,966.08
2016-12-25T00:35:00.286Z,966.12
2016-12-25T00:35:26.271Z,966.07
2016-12-25T00:35:52.260Z,966.04
2016-12-25T00:36:18.242Z,966.08
2016-12-25T00:36:44.257Z,966.1
2016-12-25T00:37:10.243Z,966.08
2016-12-25T00:37:36.327Z,966.09
2016-12-25T00:38:02.313Z,966.12
2016-12-25T00:38:28.302Z,966.13
2016-12-25T00:38:54.293Z,966.17
2016-12-25T00:39:20.293Z,966.18
2016-12-25T00:39:46.285Z,966.19
2016-12-25T00:40:12.262Z,966.16
2016-12-25T00:40:38.247Z,966.16
2016-12-25T00:41:04.230Z,966.13
2016-12-25T00:41:30.212Z,966.17
2016-12-25T00:41:56.196Z,966.1
2016-12-25T00:42:22.187Z,966.03
2016-12-25T00:42:48.167Z,966.05
2016-12-25T00:43:14.149Z,966.07
2016-12-25T00:43:40.139Z,966.11
2016-12-25T00:44:06.123Z,966.07
2016-12-25T00:44:32.114Z,966.09
2016-12-25T00:44:58.101Z,966.08
2016-12-25T00:45:24.086Z,966.13
2016-12-25T00:45:50.070Z,966.1
2016-12-25T00:46:16.058Z,966.11
2016-12-25T00:46:42.040Z,966.11
2016-12-25T00:47:08.027Z,966.05
2016-12-25T00:47:34.008Z,966.07
2016-12-25T00:47:59.994Z,966.04
2016-12-25T00:48:25.978Z,966.05
2016-12-25T00:48:51.960Z,966.05
2016-12-25T00:49:17.943Z,966.05
2016-12-25T00:49:43.931Z,966.01
2016-12-25T00:50:09.922Z,966.04
2016-12-25T00:50:35.913Z,966.03
2016-12-25T00:51:01.909Z,966.02
2016-12-25T00:51:27.897Z,965.99
2016-12-25T00:51:53.881Z,966.01
2016-12-25T00:52:19.877Z,966.02
2016-12-25T00:52:45.873Z,966.02
2016-12-25T00:53:11.860Z,966.05
2016-12-25T00:53:37.853Z,966.01
2016-12-25T00:54:03.841Z,965.99
2016-12-25T00:54:29.827Z,966
2016-12-25T00:54:55.814Z,965.99
2016-12-25T00:55:21.797Z,966.02
2016-12-25T00:55:47.779Z,965.96
2016-12-25T00:56:13.765Z,965.93
2016-12-25T00:56:39.751Z,965.96
2016-12-25T00:57:05.738Z,965.94
2016-12-25T00:57:31.724Z,965.93
2016-12-25T00:57:57.721Z,965.92
2016-12-25T00:58:23.706Z,965.91
2016-12-25T00:58:49.691Z,965.96
2016-12-25T00:59:15.676Z,965.96
2016-12-25T00:59:41.658Z,966
2016-12-25T01:00:07.642Z,965.96
2016-12-25T01:00:33.626Z,966.05
2016-12-25T01:00:59.634Z,966.01
2016-12-25T01:01:25.617Z,966.02
2016-12-25T01:01:51.602Z,966.02
2016-12-25T01:02:17.594Z,966.01
2016-12-25T01:02:43.659Z,966.06
2016-12-25T01:03:09.638Z,966.1
2016-12-25T01:03:35.629Z,966.03
2016-12-25T01:04:01.608Z,966.05
2016-12-25T01:04:27.593Z,966.04
2016-12-25T01:04:53.576Z,966.03
2016-12-25T01:05:19.560Z,965.99
2016-12-25T01:05:45.550Z,966.04
2016-12-25T01:06:11.536Z,966
2016-12-25T01:06:37.518Z,966.02
2016-12-25T01:07:03.506Z,966.05
2016-12-25T01:07:29.488Z,966.01
2016-12-25T01:07:55.473Z,966.04
2016-12-25T01:08:21.476Z,966.04
2016-12-25T01:08:47.444Z,966.07
2016-12-25T01:09:13.429Z,966.04
2016-12-25T01:09:39.415Z,966.04
2016-12-25T01:10:05.405Z,966.04
2016-12-25T01:10:31.386Z,966.06
2016-12-25T01:10:57.382Z,965.97
2016-12-25T01:11:23.367Z,965.99
2016-12-25T01:11:49.359Z,966.01
2016-12-25T01:12:15.349Z,965.94
2016-12-25T01:12:41.346Z,965.99
2016-12-25T01:13:07.328Z,965.88
2016-12-25T01:13:33.313Z,965.92
2016-12-25T01:13:59.296Z,965.91
2016-12-25T01:14:25.280Z,965.91
2016-12-25T01:14:51.263Z,965.87
2016-12-25T01:15:17.247Z,965.9
2016-12-25T01:15:43.235Z,965.86
2016-12-25T01:16:09.218Z,965.83
2016-12-25T01:16:35.204Z,965.82
2016-12-25T01:17:01.191Z,965.83
2016-12-25T01:17:27.227Z,965.82
2016-12-25T01:17:53.209Z,965.77
2016-12-25T01:18:19.194Z,965.82
2016-12-25T01:18:45.186Z,965.66
2016-12-25T01:19:11.170Z,965.72
2016-12-25T01:19:37.162Z,965.74
2016-12-25T01:20:03.144Z,965.77
2016-12-25T01:20:29.127Z,965.71
2016-12-25T01:20:55.111Z,965.67
2016-12-25T01:21:21.096Z,965.69
2016-12-25T01:21:47.081Z,965.71
2016-12-25T01:22:13.077Z,965.71
2016-12-25T01:22:39.063Z,965.67
2016-12-25T01:23:05.045Z,965.73
2016-12-25T01:23:31.029Z,965.76
2016-12-25T01:23:57.012Z,965.76
2016-12-25T01:24:22.995Z,965.77
2016-12-25T01:24:48.982Z,965.73
2016-12-25T01:25:14.971Z,965.75
2016-12-25T01:25:40.971Z,965.76
2016-12-25T01:26:06.968Z,965.75
2016-12-25T01:26:32.952Z,965.78
2016-12-25T01:26:58.936Z,965.78
2016-12-25T01:27:24.920Z,965.82
2016-12-25T01:27:51.006Z,965.81
2016-12-25T01:28:16.989Z,965.8
2016-12-25T01:28:42.986Z,965.82
2016-12-25T01:29:08.976Z,965.82
2016-12-25T01:29:34.959Z,965.86
2016-12-25T01:30:00.949Z,965.81
2016-12-25T01:30:26.931Z,965.85
2016-12-25T01:30:52.917Z,965.81
2016-12-25T01:31:18.904Z,965.82
2016-12-25T01:31:44.883Z,965.83
2016-12-25T01:32:10.870Z,965.78
2016-12-25T01:32:36.854Z,965.79
2016-12-25T01:33:02.840Z,965.82
2016-12-25T01:33:28.825Z,965.81
2016-12-25T01:33:54.809Z,965.86
2016-12-25T01:34:20.798Z,965.88
2016-12-25T01:34:46.785Z,965.89
2016-12-25T01:35:12.771Z,965.83
2016-12-25T01:35:38.765Z,965.88
2016-12-25T01:36:04.756Z,965.85
2016-12-25T01:36:30.762Z,965.81
2016-12-25T01:36:56.757Z,965.85
2016-12-25T01:37:22.750Z,965.82
2016-12-25T01:37:48.857Z,965.8
2016-12-25T01:38:14.837Z,965.84
2016-12-25T01:38:40.828Z,965.84
2016-12-25T01:39:06.823Z,965.84
2016-12-25T01:39:32.808Z,965.86
2016-12-25T01:39:58.805Z,965.82
2016-12-25T01:40:24.794Z,965.83
2016-12-25T01:40:50.780Z,965.89
2016-12-25T01:41:16.763Z,965.79
2016-12-25T01:41:42.750Z,965.79
2016-12-25T01:42:08.731Z,965.77
2016-12-25T01:42:34.720Z,965.83
2016-12-25T01:43:00.707Z,965.82
2016-12-25T01:43:26.694Z,965.76
2016-12-25T01:43:52.680Z,965.74
2016-12-25T01:44:18.660Z,965.78
2016-12-25T01:44:44.646Z,965.77
2016-12-25T01:45:10.633Z,965.76
2016-12-25T01:45:36.644Z,965.77
2016-12-25T01:46:02.629Z,965.74
2016-12-25T01:46:28.623Z,965.78
2016-12-25T01:46:54.635Z,965.82
2016-12-25T01:47:20.618Z,965.8
2016-12-25T01:47:46.604Z,965.82
2016-12-25T01:48:12.825Z,965.79
2016-12-25T01:48:38.819Z,965.77
2016-12-25T01:49:04.809Z,965.75
2016-12-25T01:49:30.792Z,965.73
2016-12-25T01:49:56.779Z,965.78
2016-12-25T01:50:22.763Z,965.75
2016-12-25T01:50:48.753Z,965.8
2016-12-25T01:51:14.756Z,965.76
2016-12-25T01:51:40.742Z,965.79
2016-12-25T01:52:06.726Z,965.78
2016-12-25T01:52:32.711Z,965.8
2016-12-25T01:52:58.699Z,965.76
2016-12-25T01:53:24.685Z,965.79
2016-12-25T01:53:50.666Z,965.72
2016-12-25T01:54:16.650Z,965.75
2016-12-25T01:54:42.635Z,965.74
2016-12-25T01:55:08.632Z,965.78
2016-12-25T01:55:34.625Z,965.75
2016-12-25T01:56:00.620Z,965.79
2016-12-25T01:56:26.604Z,965.77
2016-12-25T01:56:52.589Z,965.81
2016-12-25T01:57:18.580Z,965.75
2016-12-25T01:57:44.559Z,965.81
2016-12-25T01:58:10.546Z,965.75
2016-12-25T01:58:38.957Z,965.8
2016-12-25T01:59:08.693Z,965.78
2016-12-25T01:59:37.476Z,965.77
2016-12-25T02:00:05.744Z,965.72
2016-12-25T02:00:32.090Z,965.78
2016-12-25T02:00:58.497Z,965.73
2016-12-25T02:01:24.402Z,965.73
2016-12-25T02:01:51.067Z,965.74
2016-12-25T02:02:16.975Z,965.76
2016-12-25T02:02:44.063Z,965.76
2016-12-25T02:03:11.304Z,965.76
2016-12-25T02:03:37.209Z,965.78
2016-12-25T02:04:03.458Z,965.76
2016-12-25T02:04:29.445Z,965.76
2016-12-25T02:04:55.435Z,965.73
2016-12-25T02:05:21.418Z,965.77
2016-12-25T02:05:47.403Z,965.77
2016-12-25T02:06:13.386Z,965.77
2016-12-25T02:06:39.371Z,965.84
2016-12-25T02:07:05.356Z,965.82
2016-12-25T02:07:31.337Z,965.85
2016-12-25T02:07:57.342Z,965.84
2016-12-25T02:08:23.325Z,965.88
2016-12-25T02:08:49.318Z,965.92
2016-12-25T02:09:15.330Z,965.93
2016-12-25T02:09:41.314Z,965.96
2016-12-25T02:10:07.308Z,965.95
2016-12-25T02:10:33.315Z,965.96
2016-12-25T02:10:59.314Z,965.92
2016-12-25T02:11:25.300Z,965.96
2016-12-25T02:11:51.291Z,965.93
2016-12-25T02:12:17.275Z,965.96
2016-12-25T02:12:43.259Z,965.99
2016-12-25T02:13:09.255Z,965.97
2016-12-25T02:13:35.252Z,965.97
2016-12-25T02:14:01.250Z,965.94
2016-12-25T02:14:27.234Z,965.93
2016-12-25T02:14:53.219Z,965.94
2016-12-25T02:15:19.203Z,965.92
2016-12-25T02:15:45.186Z,965.98
2016-12-25T02:16:11.172Z,965.94
2016-12-25T02:16:37.156Z,965.91
2016-12-25T02:17:03.140Z,965.89
2016-12-25T02:17:29.124Z,965.93
2016-12-25T02:17:55.110Z,965.93
2016-12-25T02:18:21.092Z,965.91
2016-12-25T02:18:47.077Z,965.92
2016-12-25T02:19:13.070Z,965.93
2016-12-25T02:19:39.057Z,965.87
2016-12-25T02:20:05.043Z,965.93
2016-12-25T02:20:31.027Z,965.95
2016-12-25T02:20:57.011Z,965.95
2016-12-25T02:21:22.995Z,965.93
2016-12-25T02:21:48.979Z,965.95
2016-12-25T02:22:14.961Z,965.95
2016-12-25T02:22:40.947Z,965.96
2016-12-25T02:23:06.930Z,965.94
2016-12-25T02:23:32.910Z,965.91
2016-12-25T02:23:58.894Z,965.91
2016-12-25T02:24:24.911Z,965.92
2016-12-25T02:24:50.868Z,965.94
2016-12-25T02:25:16.850Z,965.87
2016-12-25T02:25:42.832Z,965.9
2016-12-25T02:26:08.815Z,965.89
2016-12-25T02:26:34.802Z,965.96
2016-12-25T02:27:00.787Z,965.94
2016-12-25T02:27:26.771Z,965.91
2016-12-25T02:27:52.755Z,965.92
2016-12-25T02:28:18.765Z,965.91
2016-12-25T02:28:44.748Z,965.88
2016-12-25T02:29:10.732Z,965.91
2016-12-25T02:29:36.716Z,965.92
2016-12-25T02:30:02.697Z,965.91
2016-12-25T02:30:28.694Z,965.84
2016-12-25T02:30:54.689Z,965.87
2016-12-25T02:31:20.681Z,965.87
2016-12-25T02:31:46.677Z,965.86
2016-12-25T02:32:12.655Z,965.87
2016-12-25T02:32:38.640Z,965.82
2016-12-25T02:33:04.626Z,965.87
2016-12-25T02:33:30.612Z,965.87
2016-12-25T02:33:56.594Z,965.86
2016-12-25T02:34:22.578Z,965.85
2016-12-25T02:34:48.566Z,965.93
2016-12-25T02:35:14.553Z,965.89
2016-12-25T02:35:40.537Z,965.91
2016-12-25T02:36:06.524Z,965.93
2016-12-25T02:36:32.509Z,965.95
2016-12-25T02:36:58.493Z,965.91
2016-12-25T02:37:24.506Z,965.93
2016-12-25T02:37:50.505Z,965.92
2016-12-25T02:38:16.494Z,965.87
2016-12-25T02:38:42.488Z,965.88
2016-12-25T02:39:08.467Z,965.89
2016-12-25T02:39:34.451Z,965.86
2016-12-25T02:40:00.470Z,965.84
2016-12-25T02:40:26.461Z,965.78
2016-12-25T02:40:52.450Z,965.78
2016-12-25T02:41:18.435Z,965.79
2016-12-25T02:41:44.429Z,965.73
2016-12-25T02:42:10.425Z,965.76
2016-12-25T02:42:36.429Z,965.72
2016-12-25T02:43:02.424Z,965.74
2016-12-25T02:43:28.410Z,965.68
2016-12-25T02:43:54.396Z,965.74
2016-12-25T02:44:20.374Z,965.72
2016-12-25T02:44:46.356Z,965.73
2016-12-25T02:45:12.342Z,965.72
2016-12-25T02:45:38.325Z,965.75
2016-12-25T02:46:04.317Z,965.81
2016-12-25T02:46:30.314Z,965.83
2016-12-25T02:46:56.303Z,965.74
2016-12-25T02:47:22.286Z,965.82
2016-12-25T02:47:48.269Z,965.79
2016-12-25T02:48:14.353Z,965.76
2016-12-25T02:48:40.337Z,965.78
2016-12-25T02:49:06.326Z,965.81
2016-12-25T02:49:32.322Z,965.8
2016-12-25T02:49:58.310Z,965.77
2016-12-25T02:50:24.308Z,965.81
2016-12-25T02:50:50.291Z,965.83
2016-12-25T02:51:16.274Z,965.81
2016-12-25T02:51:42.259Z,965.74
2016-12-25T02:52:08.243Z,965.72
2016-12-25T02:52:34.228Z,965.67
2016-12-25T02:53:00.211Z,965.69
2016-12-25T02:53:26.195Z,965.7
2016-12-25T02:53:52.180Z,965.69
2016-12-25T02:54:18.162Z,965.66
2016-12-25T02:54:44.148Z,965.71
2016-12-25T02:55:10.131Z,965.73
2016-12-25T02:55:36.129Z,965.75
2016-12-25T02:56:02.120Z,965.71
2016-12-25T02:56:28.117Z,965.75
2016-12-25T02:56:54.112Z,965.73
2016-12-25T02:57:20.104Z,965.71
2016-12-25T02:57:46.087Z,965.7
2016-12-25T02:58:12.074Z,965.67
2016-12-25T02:58:38.055Z,965.62
2016-12-25T02:59:04.043Z,965.69
2016-12-25T02:59:30.026Z,965.6
2016-12-25T02:59:56.009Z,965.68
2016-12-25T03:00:21.993Z,965.64
2016-12-25T03:00:47.981Z,965.7
2016-12-25T03:01:13.962Z,965.7
2016-12-25T03:01:39.949Z,965.7
2016-12-25T03:02:05.941Z,965.69
2016-12-25T03:02:31.931Z,965.63
2016-12-25T03:02:57.917Z,965.7
2016-12-25T03:03:23.902Z,965.72
2016-12-25T03:03:49.884Z,965.73
2016-12-25T03:04:15.870Z,965.63
2016-12-25T03:04:41.855Z,965.71
2016-12-25T03:05:07.837Z,965.67
2016-12-25T03:05:33.824Z,965.64
2016-12-25T03:05:59.810Z,965.69
2016-12-25T03:06:25.790Z,965.69
2016-12-25T03:06:51.778Z,965.66
2016-12-25T03:07:17.761Z,965.66
2016-12-25T03:07:43.754Z,965.67
2016-12-25T03:08:09.843Z,965.64
2016-12-25T03:08:35.829Z,965.61
2016-12-25T03:09:01.815Z,965.6
2016-12-25T03:09:27.796Z,965.58
2016-12-25T03:09:53.813Z,965.55
2016-12-25T03:10:19.796Z,965.57
2016-12-25T03:10:45.781Z,965.44
2016-12-25T03:11:11.761Z,965.55
2016-12-25T03:11:37.748Z,965.5
2016-12-25T03:12:03.745Z,965.49
2016-12-25T03:12:29.748Z,965.52
2016-12-25T03:12:55.748Z,965.54
2016-12-25T03:13:21.729Z,965.57
2016-12-25T03:13:47.713Z,965.52
2016-12-25T03:14:13.697Z,965.55
2016-12-25T03:14:39.680Z,965.54
2016-12-25T03:15:05.666Z,965.56
2016-12-25T03:15:31.648Z,965.58
2016-12-25T03:15:57.645Z,965.55
2016-12-25T03:16:23.643Z,965.55
2016-12-25T03:16:49.638Z,965.54
2016-12-25T03:17:15.625Z,965.5
2016-12-25T03:17:41.614Z,965.52
2016-12-25T03:18:07.603Z,965.52
2016-12-25T03:18:33.586Z,965.53
2016-12-25T03:18:59.571Z,965.53
2016-12-25T03:19:25.556Z,965.54
2016-12-25T03:19:51.540Z,965.5
2016-12-25T03:20:17.525Z,965.5
2016-12-25T03:20:43.511Z,965.5
2016-12-25T03:21:09.495Z,965.51
2016-12-25T03:21:35.481Z,965.47
2016-12-25T03:22:01.463Z,965.51
2016-12-25T03:22:28.463Z,965.5
2016-12-25T03:22:54.444Z,965.51
2016-12-25T03:23:20.430Z,965.5
2016-12-25T03:23:46.417Z,965.46
2016-12-25T03:24:12.398Z,965.55
2016-12-25T03:24:38.385Z,965.52
2016-12-25T03:25:04.370Z,965.55
2016-12-25T03:25:30.367Z,965.58
2016-12-25T03:25:56.352Z,965.55
2016-12-25T03:26:22.337Z,965.57
2016-12-25T03:26:48.322Z,965.52
2016-12-25T03:27:14.305Z,965.52
2016-12-25T03:27:40.292Z,965.52
2016-12-25T03:28:06.278Z,965.51
2016-12-25T03:28:32.262Z,965.49
2016-12-25T03:28:58.249Z,965.47
2016-12-25T03:29:24.235Z,965.45
2016-12-25T03:29:50.219Z,965.47
2016-12-25T03:30:16.202Z,965.5
2016-12-25T03:30:42.191Z,965.51
2016-12-25T03:31:08.179Z,965.52
2016-12-25T03:31:34.176Z,965.49
2016-12-25T03:32:00.163Z,965.47
2016-12-25T03:32:26.146Z,965.48
2016-12-25T03:32:52.128Z,965.46
2016-12-25T03:33:18.109Z,965.5
2016-12-25T03:33:44.095Z,965.48
2016-12-25T03:34:10.081Z,965.44
2016-12-25T03:34:36.065Z,965.48
2016-12-25T03:35:02.050Z,965.53
2016-12-25T03:35:28.032Z,965.54
2016-12-25T03:35:54.014Z,965.53
2016-12-25T03:36:19.998Z,965.49
2016-12-25T03:36:45.986Z,965.53
2016-12-25T03:37:11.987Z,965.58
2016-12-25T03:37:37.968Z,965.55
2016-12-25T03:38:03.950Z,965.56
2016-12-25T03:38:29.934Z,965.63
2016-12-25T03:38:55.919Z,965.59
2016-12-25T03:39:21.904Z,965.59
2016-12-25T03:39:47.902Z,965.56
2016-12-25T03:40:13.888Z,965.57
2016-12-25T03:40:39.874Z,965.62
2016-12-25T03:41:05.854Z,965.59
2016-12-25T03:41:31.840Z,965.54
2016-12-25T03:41:57.820Z,965.58
2016-12-25T03:42:23.807Z,965.48
2016-12-25T03:42:49.798Z,965.51
2016-12-25T03:43:15.793Z,965.41
2016-12-25T03:43:41.772Z,965.41
2016-12-25T03:44:07.753Z,965.44
2016-12-25T03:44:33.736Z,965.48
2016-12-25T03:44:59.720Z,965.44
2016-12-25T03:45:25.706Z,965.44
2016-12-25T03:45:51.686Z,965.4
2016-12-25T03:46:17.671Z,965.39
2016-12-25T03:46:43.654Z,965.45
2016-12-25T03:47:09.638Z,965.48
2016-12-25T03:47:35.625Z,965.5
2016-12-25T03:48:01.615Z,965.49
2016-12-25T03:48:27.606Z,965.5
2016-12-25T03:48:53.592Z,965.45
2016-12-25T03:49:19.577Z,965.39
2016-12-25T03:49:45.560Z,965.42
2016-12-25T03:50:11.559Z,965.42
2016-12-25T03:50:37.557Z,965.4
2016-12-25T03:51:03.542Z,965.41
2016-12-25T03:51:29.534Z,965.4
2016-12-25T03:51:55.544Z,965.37
2016-12-25T03:52:21.533Z,965.36
2016-12-25T03:52:47.535Z,965.37
2016-12-25T03:53:13.513Z,965.31
2016-12-25T03:53:39.598Z,965.33
2016-12-25T03:54:05.583Z,965.35
2016-12-25T03:54:31.569Z,965.33
2016-12-25T03:54:57.552Z,965.37
2016-12-25T03:55:23.535Z,965.38
2016-12-25T03:55:49.519Z,965.37
2016-12-25T03:56:15.505Z,965.37
2016-12-25T03:56:41.488Z,965.41
2016-12-25T03:57:07.475Z,965.35
2016-12-25T03:57:33.463Z,965.34
2016-12-25T03:57:59.646Z,965.4
2016-12-25T03:58:25.634Z,965.44
2016-12-25T03:58:51.626Z,965.41
2016-12-25T03:59:17.606Z,965.41
2016-12-25T03:59:43.594Z,965.42
2016-12-25T04:00:09.577Z,965.41
2016-12-25T04:00:35.560Z,965.4
2016-12-25T04:01:01.548Z,965.43
2016-12-25T04:01:27.532Z,965.39
2016-12-25T04:01:53.516Z,965.4
2016-12-25T04:02:19.503Z,965.35
2016-12-25T04:02:45.483Z,965.34
2016-12-25T04:03:11.467Z,965.38
2016-12-25T04:03:37.549Z,965.34
2016-12-25T04:04:03.538Z,965.33
2016-12-25T04:04:29.519Z,965.37
2016-12-25T04:04:55.506Z,965.39
2016-12-25T04:05:21.509Z,965.37
2016-12-25T04:05:47.495Z,965.41
2016-12-25T04:06:13.480Z,965.44
2016-12-25T04:06:39.475Z,965.43
2016-12-25T04:07:05.460Z,965.45
2016-12-25T04:07:31.450Z,965.47
2016-12-25T04:07:57.437Z,965.46
2016-12-25T04:08:23.422Z,965.52
2016-12-25T04:08:49.409Z,965.52
2016-12-25T04:09:15.392Z,965.54
2016-12-25T04:09:41.377Z,965.51
2016-12-25T04:10:07.360Z,965.5
2016-12-25T04:10:33.346Z,965.53
2016-12-25T04:10:59.328Z,965.48
2016-12-25T04:11:25.311Z,965.45
2016-12-25T04:11:51.294Z,965.46
2016-12-25T04:12:17.279Z,965.48
2016-12-25T04:12:43.267Z,965.47
2016-12-25T04:13:09.257Z,965.5
2016-12-25T04:13:35.243Z,965.48
2016-12-25T04:14:01.244Z,965.5
2016-12-25T04:14:27.241Z,965.51
2016-12-25T04:14:53.220Z,965.49
2016-12-25T04:15:19.204Z,965.47
2016-12-25T04:15:45.185Z,965.43
2016-12-25T04:16:11.171Z,965.42
2016-12-25T04:16:37.155Z,965.44
2016-12-25T04:17:03.136Z,965.47
2016-12-25T04:17:29.120Z,965.39
2016-12-25T04:17:55.109Z,965.41
2016-12-25T04:18:21.122Z,965.4
2016-12-25T04:18:47.121Z,965.39
2016-12-25T04:19:13.100Z,965.41
2016-12-25T04:19:39.084Z,965.42
2016-12-25T04:20:05.069Z,965.46
2016-12-25T04:20:31.058Z,965.48
2016-12-25T04:20:57.053Z,965.47
2016-12-25T04:21:23.032Z,965.46
2016-12-25T04:21:49.013Z,965.49
2016-12-25T04:22:14.997Z,965.47
2016-12-25T04:22:40.980Z,965.49
2016-12-25T04:23:06.966Z,965.55
2016-12-25T04:23:33.055Z,965.56
2016-12-25T04:23:59.036Z,965.53
2016-12-25T04:24:25.024Z,965.47
2016-12-25T04:24:51.558Z,965.5
2016-12-25T04:25:17.638Z,965.5
2016-12-25T04:25:43.636Z,965.44
2016-12-25T04:26:09.657Z,965.49
2016-12-25T04:26:35.931Z,965.48
2016-12-25T04:27:01.910Z,965.47
2016-12-25T04:27:27.885Z,965.49
2016-12-25T04:27:53.884Z,965.45
2016-12-25T04:28:20.080Z,965.46
2016-12-25T04:28:46.215Z,965.46
2016-12-25T04:29:12.205Z,965.41
2016-12-25T04:29:38.191Z,965.41
2016-12-25T04:30:04.175Z,965.44
2016-12-25T04:30:30.160Z,965.43
2016-12-25T04:30:56.144Z,965.41
2016-12-25T04:31:22.177Z,965.45
2016-12-25T04:31:48.159Z,965.43
2016-12-25T04:32:14.146Z,965.41
2016-12-25T04:32:40.130Z,965.41
2016-12-25T04:33:06.114Z,965.41
2016-12-25T04:33:32.110Z,965.41
2016-12-25T04:33:58.094Z,965.39
2016-12-25T04:34:24.099Z,965.35
2016-12-25T04:34:50.080Z,965.36
2016-12-25T04:35:16.064Z,965.37
2016-12-25T04:35:42.047Z,965.36
2016-12-25T04:36:08.030Z,965.31
2016-12-25T04:36:34.017Z,965.31
2016-12-25T04:37:00.077Z,965.31
2016-12-25T04:37:26.056Z,965.29
2016-12-25T04:37:52.041Z,965.28
2016-12-25T04:38:18.025Z,965.3
2016-12-25T04:38:44.446Z,965.3
2016-12-25T04:39:10.929Z,965.29
2016-12-25T04:39:36.911Z,965.28
2016-12-25T04:40:02.895Z,965.29
2016-12-25T04:40:28.899Z,965.25
2016-12-25T04:40:54.882Z,965.23
2016-12-25T04:41:21.120Z,965.19
2016-12-25T04:41:47.103Z,965.22
2016-12-25T04:42:13.093Z,965.15
2016-12-25T04:42:39.077Z,965.14
2016-12-25T04:43:05.449Z,965.2
2016-12-25T04:43:31.755Z,965.15
2016-12-25T04:43:57.738Z,965.18
2016-12-25T04:44:23.721Z,965.17
2016-12-25T04:44:49.705Z,965.22
2016-12-25T04:45:15.739Z,965.19
2016-12-25T04:45:41.881Z,965.2
2016-12-25T04:46:07.786Z,965.24
2016-12-25T04:46:33.770Z,965.2
2016-12-25T04:46:59.752Z,965.23
2016-12-25T04:47:25.737Z,965.22
2016-12-25T04:47:51.720Z,965.16
2016-12-25T04:48:17.713Z,965.21
2016-12-25T04:48:43.703Z,965.17
2016-12-25T04:49:09.686Z,965.18
2016-12-25T04:49:35.671Z,965.18
2016-12-25T04:50:01.655Z,965.19
2016-12-25T04:50:27.638Z,965.17
2016-12-25T04:50:53.624Z,965.16
2016-12-25T04:51:19.607Z,965.15
2016-12-25T04:51:45.592Z,965.13
2016-12-25T04:52:11.574Z,965.12
2016-12-25T04:52:37.697Z,965.09
2016-12-25T04:53:03.685Z,965.08
2016-12-25T04:53:29.657Z,965.15
2016-12-25T04:53:55.678Z,965.13
2016-12-25T04:54:21.667Z,965.17
2016-12-25T04:54:47.646Z,965.15
2016-12-25T04:55:13.632Z,965.18
2016-12-25T04:55:39.623Z,965.16
2016-12-25T04:56:05.614Z,965.15
2016-12-25T04:56:31.594Z,965.2
2016-12-25T04:56:57.578Z,965.23
2016-12-25T04:57:23.565Z,965.18
2016-12-25T04:57:49.547Z,965.18
2016-12-25T04:58:15.530Z,965.25
2016-12-25T04:58:41.621Z,965.24
2016-12-25T04:59:07.616Z,965.2
2016-12-25T04:59:33.621Z,965.23
2016-12-25T04:59:59.623Z,965.23
2016-12-25T05:00:25.605Z,965.24
2016-12-25T05:00:51.598Z,965.21
2016-12-25T05:01:17.576Z,965.17
2016-12-25T05:01:43.554Z,965.17
2016-12-25T05:02:09.544Z,965.17
2016-12-25T05:02:35.536Z,965.14
2016-12-25T05:03:01.527Z,965.18
2016-12-25T05:03:27.511Z,965.18
2016-12-25T05:03:53.495Z,965.17
2016-12-25T05:04:19.475Z,965.26
2016-12-25T05:04:45.462Z,965.25
2016-12-25T05:05:11.447Z,965.25
2016-12-25T05:05:37.429Z,965.27
2016-12-25T05:06:03.419Z,965.26
2016-12-25T05:06:29.418Z,965.26
2016-12-25T05:06:55.392Z,965.27
2016-12-25T05:07:21.385Z,965.29
2016-12-25T05:07:47.364Z,965.33
2016-12-25T05:08:13.348Z,965.31
2016-12-25T05:08:39.336Z,965.3
2016-12-25T05:09:05.323Z,965.32
2016-12-25T05:09:31.308Z,965.31
2016-12-25T05:09:57.290Z,965.35
2016-12-25T05:10:23.275Z,965.32
2016-12-25T05:10:49.260Z,965.31
2016-12-25T05:11:15.246Z,965.31
2016-12-25T05:11:41.228Z,965.31
2016-12-25T05:12:07.211Z,965.31
2016-12-25T05:12:33.193Z,965.3
2016-12-25T05:12:59.178Z,965.3
2016-12-25T05:13:25.161Z,965.33
2016-12-25T05:13:51.155Z,965.3
2016-12-25T05:14:17.144Z,965.31
2016-12-25T05:14:43.130Z,965.32
2016-12-25T05:15:09.114Z,965.36
2016-12-25T05:15:35.098Z,965.34
2016-12-25T05:16:01.081Z,965.32
2016-12-25T05:16:27.068Z,965.35
2016-12-25T05:16:53.057Z,965.35
2016-12-25T05:17:19.069Z,965.3
2016-12-25T05:17:45.052Z,965.31
2016-12-25T05:18:11.039Z,965.31
2016-12-25T05:18:37.026Z,965.36
2016-12-25T05:19:03.010Z,965.29
2016-12-25T05:19:28.995Z,965.29
2016-12-25T05:19:54.979Z,965.26
2016-12-25T05:20:20.969Z,965.21
2016-12-25T05:20:46.956Z,965.17
2016-12-25T05:21:12.939Z,965.2
2016-12-25T05:21:38.925Z,965.18
2016-12-25T05:22:04.909Z,965.21
2016-12-25T05:22:30.891Z,965.24
2016-12-25T05:22:56.880Z,965.26
2016-12-25T05:23:22.863Z,965.26
2016-12-25T05:23:48.950Z,965.28
2016-12-25T05:24:14.934Z,965.24
2016-12-25T05:24:40.919Z,965.22
2016-12-25T05:25:06.900Z,965.24
2016-12-25T05:25:32.899Z,965.3
2016-12-25T05:25:58.867Z,965.3